createdAt,value
2023-05-20T00:00:25.588Z,15.30
2023-05-20T00:05:49.007Z,14.01
2023-05-20T00:10:53.051Z,16.41
2023-05-20T00:15:55.846Z,16.48
2023-05-20T00:20:58.996Z,14.92
2023-05-20T00:26:03.978Z,14.22
2023-05-20T00:31:06.759Z,16.50
2023-05-20T00:36:09.608Z,15.34
2023-05-20T00:41:12.492Z,14.08
2023-05-20T00:46:17.590Z,16.07
2023-05-20T00:51:21.749Z,15.68
2023-05-20T00:56:26.227Z,14.13
2023-05-20T01:01:29.082Z,15.73
2023-05-20T01:06:33.777Z,15.38
2023-05-20T01:11:50.547Z,14.18
2023-05-20T01:16:56.114Z,16.24
2023-05-20T01:22:06.434Z,14.80
2023-05-20T01:27:15.903Z,14.96
2023-05-20T01:32:27.972Z,16.51
2023-05-20T01:37:32.542Z,14.55
2023-05-20T01:42:36.865Z,15.66
2023-05-20T01:47:39.753Z,15.63
2023-05-20T01:52:42.537Z,13.97
2023-05-20T01:57:45.321Z,15.83
2023-05-20T02:02:48.154Z,15.86
2023-05-20T02:07:56.572Z,14.18
2023-05-20T02:12:59.716Z,15.64
2023-05-20T02:18:02.894Z,16.18
2023-05-20T02:23:06.037Z,14.36
2023-05-20T02:28:10.796Z,15.11
2023-05-20T02:33:16.904Z,16.09
2023-05-20T02:38:22.794Z,14.31
2023-05-20T02:43:26.489Z,15.31
2023-05-20T02:48:29.666Z,15.91
2023-05-20T02:53:32.426Z,14.13
2023-05-20T02:58:35.670Z,14.93
2023-05-20T03:03:38.389Z,16.05
2023-05-20T03:08:45.230Z,14.32
2023-05-20T03:13:50.078Z,15.00
2023-05-20T03:18:54.659Z,16.19
2023-05-20T03:23:57.462Z,14.51
2023-05-20T03:29:00.395Z,14.35
2023-05-20T03:34:04.778Z,16.56
2023-05-20T03:39:07.492Z,14.93
2023-05-20T03:44:10.984Z,14.11
2023-05-20T03:49:13.639Z,16.49
2023-05-20T03:54:19.733Z,15.24
2023-05-20T03:59:47.893Z,14.00
2023-05-20T04:04:53.855Z,15.95
2023-05-20T04:09:59.518Z,15.25
2023-05-20T04:15:04.679Z,14.12
2023-05-20T04:20:08.812Z,14.79
2023-05-20T04:25:15.758Z,16.99
2023-05-20T04:30:18.558Z,15.28
2023-05-20T04:35:21.666Z,14.23
2023-05-20T04:40:24.433Z,14.69
2023-05-20T04:45:27.212Z,16.86
2023-05-20T04:50:30.110Z,15.39
2023-05-20T04:55:32.978Z,14.46
2023-05-20T05:00:39.807Z,13.87
2023-05-20T05:05:42.773Z,14.95
2023-05-20T05:10:46.691Z,16.18
2023-05-20T05:16:02.053Z,15.01
2023-05-20T05:21:07.003Z,14.29
2023-05-20T05:26:10.875Z,13.94
2023-05-20T05:31:13.752Z,13.79
2023-05-20T05:36:17.400Z,13.74
2023-05-20T05:41:25.301Z,16.00
2023-05-20T05:46:28.124Z,15.42
2023-05-20T05:51:31.105Z,14.65
2023-05-20T05:56:33.775Z,14.30
2023-05-20T06:01:39.647Z,14.16
2023-05-20T06:06:42.610Z,14.11
2023-05-20T06:11:45.234Z,14.15
2023-05-20T06:16:47.945Z,14.34
2023-05-20T06:21:52.746Z,14.58
2023-05-20T06:26:55.430Z,14.83
2023-05-20T06:32:00.166Z,15.19
2023-05-20T06:37:03.578Z,15.64
2023-05-20T06:42:06.194Z,15.96
2023-05-20T06:47:14.897Z,16.29
2023-05-20T06:52:17.612Z,16.67
2023-05-20T06:57:20.750Z,17.12
2023-05-20T07:02:27.931Z,17.44
2023-05-20T07:07:33.110Z,17.50
2023-05-20T07:12:38.571Z,17.78
2023-05-20T07:17:41.179Z,18.35
2023-05-20T07:22:47.836Z,18.81
2023-05-20T07:27:52.675Z,18.95
2023-05-20T07:32:56.838Z,18.81
2023-05-20T07:38:02.319Z,19.26
2023-05-20T07:43:05.081Z,19.92
2023-05-20T07:48:08.928Z,20.10
2023-05-20T07:53:12.278Z,20.74
2023-05-20T07:58:16.925Z,21.80
2023-05-20T08:03:22.832Z,21.93
2023-05-20T08:08:31.674Z,21.42
2023-05-20T08:13:34.294Z,20.99
2023-05-20T08:18:37.971Z,20.89
2023-05-20T08:23:40.924Z,20.99
2023-05-20T08:28:43.827Z,20.58
2023-05-20T08:33:49.563Z,19.90
2023-05-20T08:38:53.505Z,19.34
2023-05-20T08:44:00.939Z,18.84
2023-05-20T08:49:04.100Z,18.52
2023-05-20T08:54:09.271Z,18.38
2023-05-20T08:59:13.808Z,18.42
2023-05-20T09:04:26.096Z,18.55
2023-05-20T09:09:33.048Z,18.61
2023-05-20T09:14:35.932Z,18.59
2023-05-20T09:19:39.105Z,18.67
2023-05-20T09:24:42.830Z,18.81
2023-05-20T09:29:48.838Z,19.14
2023-05-20T09:34:52.562Z,19.64
2023-05-20T09:39:59.864Z,20.12
2023-05-20T09:45:09.405Z,20.76
2023-05-20T09:50:15.436Z,21.45
2023-05-20T09:55:21.994Z,22.10
2023-05-20T10:00:24.766Z,23.03
2023-05-20T10:05:37.532Z,23.83
2023-05-20T10:10:53.072Z,24.31
2023-05-20T10:16:20.734Z,24.57
2023-05-20T10:21:25.380Z,25.49
2023-05-20T10:26:40.945Z,25.89
2023-05-20T10:31:53.580Z,25.48
2023-05-20T10:36:56.203Z,24.97
2023-05-20T10:42:10.049Z,24.59
2023-05-20T10:52:20.784Z,24.24
2023-05-20T10:57:26.338Z,24.13
2023-05-20T11:02:29.705Z,24.44
2023-05-20T11:07:34.191Z,24.71
2023-05-20T11:12:36.949Z,24.90
2023-05-20T11:17:55.760Z,24.78
2023-05-20T11:22:58.639Z,24.92
2023-05-20T11:28:01.301Z,25.12
2023-05-20T11:33:06.255Z,25.07
2023-05-20T11:38:09.821Z,24.72
2023-05-20T11:43:15.599Z,24.17
2023-05-20T11:48:19.757Z,23.77
2023-05-20T11:53:24.302Z,23.57
2023-05-20T11:58:32.442Z,23.50
2023-05-20T12:03:36.883Z,23.31
2023-05-20T12:08:42.145Z,23.18
2023-05-20T12:13:47.068Z,23.21
2023-05-20T12:18:53.052Z,23.20
2023-05-20T12:23:59.274Z,23.26
2023-05-20T12:29:02.178Z,23.20
2023-05-20T12:34:04.765Z,23.20
2023-05-20T12:39:07.557Z,23.31
2023-05-20T12:44:10.742Z,23.50
2023-05-20T12:49:16.308Z,23.60
2023-05-20T12:54:22.350Z,23.41
2023-05-20T12:59:25.144Z,23.32
2023-05-20T13:04:28.213Z,23.35
2023-05-20T13:09:33.221Z,23.49
2023-05-20T13:14:35.868Z,23.60
2023-05-20T13:19:39.004Z,23.72
2023-05-20T13:24:43.068Z,23.98
2023-05-20T13:29:46.128Z,23.98
2023-05-20T13:34:49.227Z,23.97
2023-05-20T13:39:54.124Z,23.94
2023-05-20T13:44:57.156Z,23.75
2023-05-20T13:50:03.382Z,23.52
2023-05-20T13:55:07.684Z,23.43
2023-05-20T14:00:11.804Z,23.48
2023-05-20T14:05:14.723Z,23.41
2023-05-20T14:10:17.385Z,23.42
2023-05-20T14:15:21.015Z,23.52
2023-05-20T14:20:25.652Z,23.59
2023-05-20T14:25:28.863Z,23.66
2023-05-20T14:30:31.780Z,23.77
2023-05-20T14:35:34.914Z,23.87
2023-05-20T14:40:37.909Z,23.89
2023-05-20T14:45:40.649Z,23.85
2023-05-20T14:50:43.538Z,23.93
2023-05-20T14:55:48.255Z,23.92
2023-05-20T15:00:53.365Z,23.92
2023-05-20T15:05:59.207Z,24.06
2023-05-20T15:11:02.036Z,24.22
2023-05-20T15:16:08.201Z,24.38
2023-05-20T15:21:11.251Z,24.43
2023-05-20T15:26:13.900Z,24.39
2023-05-20T15:31:22.938Z,24.37
2023-05-20T15:36:25.573Z,24.34
2023-05-20T15:41:34.846Z,24.29
2023-05-20T15:46:37.913Z,24.18
2023-05-20T15:51:52.259Z,23.90
2023-05-20T15:57:05.880Z,23.66
2023-05-20T16:02:08.818Z,23.54
2023-05-20T16:07:11.764Z,23.47
2023-05-20T16:12:16.577Z,23.42
2023-05-20T16:17:21.386Z,23.36
2023-05-20T16:22:24.120Z,23.29
2023-05-20T16:27:26.870Z,23.21
2023-05-20T16:32:32.257Z,23.18
2023-05-20T16:37:35.125Z,23.15
2023-05-20T16:42:39.562Z,23.12
2023-05-20T16:47:42.341Z,23.09
2023-05-20T16:52:45.385Z,23.05
2023-05-20T16:57:48.966Z,23.01
2023-05-20T17:02:51.767Z,22.94
2023-05-20T17:07:59.078Z,22.83
2023-05-20T17:13:02.073Z,22.70
2023-05-20T17:18:05.196Z,22.57
2023-05-20T17:23:08.046Z,22.46
2023-05-20T17:28:10.827Z,22.34
2023-05-20T17:33:14.320Z,22.23
2023-05-20T17:38:18.940Z,22.11
2023-05-20T17:43:26.724Z,21.98
2023-05-20T17:48:29.429Z,21.84
2023-05-20T17:53:32.352Z,21.68
2023-05-20T17:58:38.164Z,21.50
2023-05-20T18:03:41.191Z,21.33
2023-05-20T18:08:46.309Z,21.16
2023-05-20T18:13:49.078Z,20.97
2023-05-20T18:18:53.250Z,20.78
2023-05-20T18:23:58.486Z,20.59
2023-05-20T18:29:02.713Z,20.42
2023-05-20T18:34:05.442Z,20.26
2023-05-20T18:39:08.147Z,20.11
2023-05-20T18:44:10.840Z,19.94
2023-05-20T18:49:13.755Z,19.79
2023-05-20T18:54:18.202Z,19.64
2023-05-20T18:59:25.291Z,19.48
2023-05-20T19:04:28.057Z,19.32
2023-05-20T19:09:30.713Z,19.18
2023-05-20T19:14:35.781Z,19.03
2023-05-20T19:19:38.426Z,18.88
2023-05-20T19:24:41.612Z,18.74
2023-05-20T19:29:44.364Z,18.63
2023-05-20T19:34:49.633Z,18.51
2023-05-20T19:39:53.269Z,18.39
2023-05-20T19:44:59.262Z,18.26
2023-05-20T19:50:05.005Z,18.14
2023-05-20T19:55:08.461Z,18.02
2023-05-20T20:00:12.920Z,17.93
2023-05-20T20:05:16.233Z,17.81
2023-05-20T20:10:22.436Z,17.72
2023-05-20T20:15:25.699Z,17.63
2023-05-20T20:20:29.642Z,17.53
2023-05-20T20:25:34.701Z,17.49
2023-05-20T20:30:40.877Z,20.07
2023-05-20T20:35:44.475Z,20.22
2023-05-20T20:40:47.569Z,19.05
2023-05-20T20:45:54.925Z,18.31
2023-05-20T20:50:57.614Z,17.82
2023-05-20T20:56:00.370Z,17.48
2023-05-20T21:01:06.880Z,17.21
2023-05-20T21:06:12.907Z,19.03
2023-05-20T21:11:21.769Z,20.35
2023-05-20T21:16:24.730Z,18.89
2023-05-20T21:21:31.013Z,18.08
2023-05-20T21:26:33.895Z,17.51
2023-05-20T21:31:36.571Z,17.05
2023-05-20T21:36:40.893Z,16.72
2023-05-20T21:41:43.512Z,16.41
2023-05-20T21:46:46.213Z,17.46
2023-05-20T21:51:49.114Z,20.36
2023-05-20T21:56:54.343Z,20.09
2023-05-20T22:01:58.308Z,18.52
2023-05-20T22:07:03.900Z,17.62
2023-05-20T22:12:07.781Z,16.97
2023-05-20T22:17:10.702Z,16.50
2023-05-20T22:22:13.424Z,16.06
2023-05-20T22:27:20.682Z,15.83
2023-05-20T22:32:23.591Z,18.33
2023-05-20T22:37:28.741Z,20.21
2023-05-20T22:42:40.645Z,19.01
2023-05-20T22:47:45.692Z,17.60
2023-05-20T22:52:48.765Z,16.78
2023-05-20T22:57:51.632Z,16.17
2023-05-20T23:02:56.627Z,15.69
2023-05-20T23:07:59.450Z,16.69
2023-05-20T23:13:02.135Z,19.54
2023-05-20T23:18:07.569Z,19.24
2023-05-20T23:23:37.422Z,17.55
2023-05-20T23:28:50.676Z,16.53
2023-05-20T23:34:11.406Z,15.84
2023-05-20T23:39:15.242Z,16.77
2023-05-20T23:44:19.598Z,19.37
2023-05-20T23:49:27.162Z,17.83
2023-05-20T23:54:34.593Z,16.35
2023-05-20T23:59:40.588Z,16.77
